Time;durP1;ratioP1;P1;durP2;ratioP2;P2;SDS_P1;SDS_P2;PMS_P1;PMS_P2;Temp;Humidity;BMP_temperature;BMP_pressure;BME280_temperature;BME280_humidity;BME280_pressure;Samples;Min_cycle;Max_cycle;Signal;HPM_P1;HPM_P2
2022/09/30 00:00:06;;;;;;;;;;;;;;;;;;5001390;28;1389;-70
2022/09/30 00:02:34;;;;;;;;;;;;;;;;;;5021956;28;1413;-71
2022/09/30 00:05:01;;;;;;;;;;;;;;;;;;5021630;28;1448;-72
2022/09/30 00:07:27;;;;;;;;;;;;;;;;;;5005504;28;1451;-71
2022/09/30 00:09:53;;;;;;;;;;;;;;;;;;5023386;28;1647;-73
2022/09/30 00:12:20;;;;;;;;;;;;;;;;;;5020514;28;1403;-71
2022/09/30 00:14:47;;;;;;;;;;;;;;;;;;5023354;28;1335;-71
2022/09/30 00:17:13;;;;;;;;;;;;;;;;;;5003669;28;1918;-71
2022/09/30 00:19:39;;;;;;;;;;;;;;;;;;5003301;28;1470;-72
2022/09/30 00:22:05;;;;;;;;;;;;;;;;;;5024511;28;1371;-72
2022/09/30 00:24:31;;;;;;;;;;;;;;;;;;5021506;28;1462;-72
2022/09/30 00:26:58;;;;;;;;;;;;;;;;;;5022699;28;1472;-71
2022/09/30 00:29:25;;;;;;;;;;;;;;;;;;5015729;28;1402;-72
2022/09/30 00:31:52;;;;;;;;;;;;;;;;;;4994203;28;1504;-71
2022/09/30 00:34:18;;;;;;;;;;;;;;;;;;5027790;28;1436;-71
2022/09/30 00:36:45;;;;;;;;;;;;;;;;;;5014280;28;1910;-72
2022/09/30 00:39:12;;;;;;;;;;;;;;;;;;5021102;28;1468;-73
2022/09/30 00:41:38;;;;;;;;;;;;;;;;;;5021190;28;1454;-72
2022/09/30 00:44:23;;;;;;;;;;;;;;;;;;5027817;28;1397;-71
2022/09/30 00:46:51;;;;;;;;;;;;;;;;;;5018148;28;1397;-73
2022/09/30 00:49:18;;;;;;;;;;;;;;;;;;5024857;28;1387;-71
2022/09/30 00:51:45;;;;;;;;;;;;;;;;;;5022092;28;1598;-72
2022/09/30 00:54:12;;;;;;;;;;;;;;;;;;5002686;28;1456;-72
2022/09/30 00:56:39;;;;;;;;;;;;;;;;;;4999945;28;1926;-72
2022/09/30 00:59:06;;;;;;;;;;;;;;;;;;5026992;28;1408;-72
2022/09/30 01:01:32;;;;;;;;;;;;;;;;;;5015389;28;1379;-72
2022/09/30 01:04:00;;;;;;;;;;;;;;;;;;5023401;28;1388;-71
2022/09/30 01:06:26;;;;;;;;;;;;;;;;;;5012560;28;1417;-71
2022/09/30 01:08:54;;;;;;;;;;;;;;;;;;5022804;28;1183;-71
2022/09/30 01:11:20;;;;;;;;;;;;;;;;;;5033828;28;1422;-71
2022/09/30 01:13:47;;;;;;;;;;;;;;;;;;5024233;28;1418;-72
2022/09/30 01:16:17;;;;;;;;;;;;;;;;;;5000111;28;1927;-71
2022/09/30 01:18:48;;;;;;;;;;;;;;;;;;5028719;28;1862;-72
2022/09/30 01:21:39;;;;;;;;;;;;;;;;;;5006686;28;1445;-71
2022/09/30 01:24:12;;;;;;;;;;;;;;;;;;4999721;28;1652;-71
2022/09/30 01:26:43;;;;;;;;;;;;;;;;;;5003330;28;1458;-71
2022/09/30 01:29:19;;;;;;;;;;;;;;;;;;5029321;28;1239;-71
2022/09/30 01:31:49;;;;;;;;;;;;;;;;;;5028239;28;1653;-71
2022/09/30 01:34:17;;;;;;;;;;;;;;;;;;5032309;28;1404;-72
2022/09/30 01:36:47;;;;;;;;;;;;;;;;;;5026319;28;1942;-73
2022/09/30 01:39:17;;;;;;;;;;;;;;;;;;5027266;28;1510;-72
2022/09/30 01:41:44;;;;;;;;;;;;;;;;;;5027270;28;1552;-73
2022/09/30 01:44:11;;;;;;;;;;;;;;;;;;5006914;28;1499;-71
2022/09/30 01:46:42;;;;;;;;;;;;;;;;;;5027900;28;1472;-73
2022/09/30 01:49:11;;;;;;;;;;;;;;;;;;5032396;28;1164;-72
2022/09/30 01:51:39;;;;;;;;;;;;;;;;;;5004511;28;1430;-72
2022/09/30 01:54:07;;;;;;;;;;;;;;;;;;5004064;28;1419;-71
2022/09/30 01:56:34;;;;;;;;;;;;;;;;;;5003927;28;1914;-71
2022/09/30 01:59:01;;;;;;;;;;;;;;;;;;5022889;28;1195;-74
2022/09/30 02:01:30;;;;;;;;;;;;;;;;;;5030179;28;1352;-71
2022/09/30 02:03:56;;;;;;;;;;;;;;;;;;5025437;28;1544;-71
2022/09/30 02:06:25;;;;;;;;;;;;;;;;;;5051671;23;3833;-77
2022/09/30 02:08:54;;;;;;;;;;;;;;;;;;5052934;28;1470;-76
2022/09/30 02:11:20;;;;;;;;;;;;;;;;;;5059934;28;1406;-76
2022/09/30 02:13:48;;;;;;;;;;;;;;;;;;5063568;28;1134;-76
2022/09/30 02:16:16;;;;;;;;;;;;;;;;;;5068118;28;1906;-76
2022/09/30 02:18:43;;;;;;;;;;;;;;;;;;5061863;28;1476;-76
2022/09/30 02:21:09;;;;;;;;;;;;;;;;;;5061919;28;1371;-76
2022/09/30 02:23:39;;;;;;;;;;;;;;;;;;5064170;28;1443;-76
2022/09/30 02:26:06;;;;;;;;;;;;;;;;;;5060792;28;1426;-76
2022/09/30 02:28:33;;;;;;;;;;;;;;;;;;5059180;28;1668;-76
2022/09/30 02:30:59;;;;;;;;;;;;;;;;;;5056325;28;1402;-76
2022/09/30 02:33:26;;;;;;;;;;;;;;;;;;5064000;28;1534;-76
2022/09/30 02:35:54;;;;;;;;;;;;;;;;;;5063589;28;1447;-76
2022/09/30 02:38:21;;;;;;;;;;;;;;;;;;5056955;28;1906;-76
2022/09/30 02:40:50;;;;;;;;;;;;;;;;;;5058209;28;1503;-75
2022/09/30 02:43:16;;;;;;;;;;;;;;;;;;5060193;28;1210;-76
2022/09/30 02:45:43;;;;;;;;;;;;;;;;;;5053695;28;1369;-76
2022/09/30 02:48:11;;;;;;;;;;;;;;;;;;5055783;28;1527;-76
2022/09/30 02:50:39;;;;;;;;;;;;;;;;;;5058600;28;1386;-76
2022/09/30 02:53:14;;;;;;;;;;;;;;;;;;5062368;28;1382;-76
2022/09/30 02:55:41;;;;;;;;;;;;;;;;;;5065286;28;1498;-76
2022/09/30 02:58:10;;;;;;;;;;;;;;;;;;5060882;28;2053;-76
2022/09/30 03:00:37;;;;;;;;;;;;;;;;;;5059840;28;1376;-76
2022/09/30 03:03:05;;;;;;;;;;;;;;;;;;5060000;28;1436;-76
2022/09/30 03:05:31;;;;;;;;;;;;;;;;;;5059443;28;1425;-77
2022/09/30 03:07:57;;;;;;;;;;;;;;;;;;5061821;28;1334;-76
2022/09/30 03:10:23;;;;;;;;;;;;;;;;;;5067717;28;1399;-76
2022/09/30 03:12:54;;;;;;;;;;;;;;;;;;5060759;28;1560;-76
2022/09/30 03:15:25;;;;;;;;;;;;;;;;;;5061442;28;1262;-76
2022/09/30 03:17:59;;;;;;;;;;;;;;;;;;5051862;28;1981;-76
2022/09/30 03:20:43;;;;;;;;;;;;;;;;;;5052885;28;1367;-76
2022/09/30 03:23:12;;;;;;;;;;;;;;;;;;5062790;28;1476;-76
2022/09/30 03:25:41;;;;;;;;;;;;;;;;;;5054072;28;1519;-75
2022/09/30 03:28:09;;;;;;;;;;;;;;;;;;5067883;28;1594;-76
2022/09/30 03:30:38;;;;;;;;;;;;;;;;;;5071571;28;1338;-76
2022/09/30 03:33:06;;;;;;;;;;;;;;;;;;5071072;28;1423;-75
2022/09/30 03:35:35;;;;;;;;;;;;;;;;;;5068776;28;813;-76
2022/09/30 03:38:02;;;;;;;;;;;;;;;;;;5051147;28;1918;-75
2022/09/30 03:40:30;;;;;;;;;;;;;;;;;;5052503;28;940;-75
2022/09/30 03:42:57;;;;;;;;;;;;;;;;;;5050287;28;1464;-75
2022/09/30 03:45:25;;;;;;;;;;;;;;;;;;5062570;28;1221;-75
2022/09/30 03:47:53;;;;;;;;;;;;;;;;;;5072036;28;1303;-75
2022/09/30 03:50:20;;;;;;;;;;;;;;;;;;5070951;28;873;-75
2022/09/30 03:52:46;;;;;;;;;;;;;;;;;;5068424;28;1454;-76
2022/09/30 03:55:12;;;;;;;;;;;;;;;;;;5061680;28;1267;-75
2022/09/30 03:57:38;;;;;;;;;;;;;;;;;;5072264;28;1918;-75
2022/09/30 04:00:05;;;;;;;;;;;;;;;;;;5071915;28;1442;-75
2022/09/30 04:02:32;;;;;;;;;;;;;;;;;;5064856;28;1489;-75
2022/09/30 04:04:59;;;;;;;;;;;;;;;;;;5068702;28;1208;-75
2022/09/30 04:07:26;;;;;;;;;;;;;;;;;;5071669;28;1336;-75
2022/09/30 04:09:52;;;;;;;;;;;;;;;;;;5072250;28;832;-76
2022/09/30 04:12:18;;;;;;;;;;;;;;;;;;5057196;28;1491;-75
2022/09/30 04:14:44;;;;;;;;;;;;;;;;;;5058701;28;1454;-75
2022/09/30 04:17:11;;;;;;;;;;;;;;;;;;5064611;28;1980;-75
2022/09/30 04:19:39;;;;;;;;;;;;;;;;;;5065329;28;1526;-75
2022/09/30 04:22:06;;;;;;;;;;;;;;;;;;5067036;28;1113;-75
2022/09/30 04:24:32;;;;;;;;;;;;;;;;;;5071419;28;722;-75
2022/09/30 04:26:59;;;;;;;;;;;;;;;;;;5059831;28;1511;-75
2022/09/30 04:29:25;;;;;;;;;;;;;;;;;;5063782;28;1118;-75
2022/09/30 04:31:51;;;;;;;;;;;;;;;;;;5071142;28;1109;-75
2022/09/30 04:34:18;;;;;;;;;;;;;;;;;;5063613;28;1444;-75
2022/09/30 04:36:44;;;;;;;;;;;;;;;;;;5061710;28;1985;-75
2022/09/30 04:39:11;;;;;;;;;;;;;;;;;;5062990;28;1262;-75
2022/09/30 04:41:37;;;;;;;;;;;;;;;;;;5071236;28;1072;-75
2022/09/30 04:44:05;;;;;;;;;;;;;;;;;;5065841;28;1455;-75
2022/09/30 04:46:31;;;;;;;;;;;;;;;;;;5062423;28;1371;-75
2022/09/30 04:48:57;;;;;;;;;;;;;;;;;;5058594;28;1603;-75
2022/09/30 04:51:23;;;;;;;;;;;;;;;;;;5060997;28;1438;-75
2022/09/30 04:53:50;;;;;;;;;;;;;;;;;;5067072;28;1168;-75
2022/09/30 04:56:18;;;;;;;;;;;;;;;;;;5063513;28;1441;-75
2022/09/30 04:58:44;;;;;;;;;;;;;;;;;;5050973;28;1950;-75
2022/09/30 05:01:10;;;;;;;;;;;;;;;;;;5052023;28;1489;-75
2022/09/30 05:03:37;;;;;;;;;;;;;;;;;;5058209;28;1187;-74
2022/09/30 05:06:03;;;;;;;;;;;;;;;;;;5050637;28;1413;-74
2022/09/30 05:08:31;;;;;;;;;;;;;;;;;;5062677;28;1102;-74
2022/09/30 05:10:57;;;;;;;;;;;;;;;;;;5059502;28;1533;-74
2022/09/30 05:13:25;;;;;;;;;;;;;;;;;;5050797;28;1275;-75
2022/09/30 05:15:51;;;;;;;;;;;;;;;;;;5050605;28;1400;-74
2022/09/30 05:18:18;;;;;;;;;;;;;;;;;;5050732;28;1926;-75
2022/09/30 05:20:44;;;;;;;;;;;;;;;;;;5049221;28;1137;-74
2022/09/30 05:23:10;;;;;;;;;;;;;;;;;;5047365;28;1275;-75
2022/09/30 05:25:36;;;;;;;;;;;;;;;;;;5045400;28;1403;-73
2022/09/30 05:28:03;;;;;;;;;;;;;;;;;;5059883;28;1380;-75
2022/09/30 05:30:30;;;;;;;;;;;;;;;;;;5060514;28;1097;-75
2022/09/30 05:32:56;;;;;;;;;;;;;;;;;;5046748;28;1397;-74
2022/09/30 05:35:23;;;;;;;;;;;;;;;;;;5051582;28;1404;-75
2022/09/30 05:37:49;;;;;;;;;;;;;;;;;;5059409;28;1979;-74
2022/09/30 05:40:15;;;;;;;;;;;;;;;;;;5062575;28;1141;-74
2022/09/30 05:42:42;;;;;;;;;;;;;;;;;;5067539;28;1498;-74
2022/09/30 05:45:08;;;;;;;;;;;;;;;;;;5063971;28;1097;-74
2022/09/30 05:47:36;;;;;;;;;;;;;;;;;;5074204;28;1346;-74
2022/09/30 05:50:02;;;;;;;;;;;;;;;;;;5072927;28;1435;-73
2022/09/30 05:52:28;;;;;;;;;;;;;;;;;;5061583;28;1446;-74
2022/09/30 05:54:56;;;;;;;;;;;;;;;;;;5070458;28;1071;-75
2022/09/30 05:57:24;;;;;;;;;;;;;;;;;;5058250;28;1981;-74
2022/09/30 05:59:50;;;;;;;;;;;;;;;;;;5073875;28;1208;-73
2022/09/30 06:02:16;;;;;;;;;;;;;;;;;;5057094;28;1438;-74
2022/09/30 06:04:44;;;;;;;;;;;;;;;;;;5059116;28;1351;-73
2022/09/30 06:07:10;;;;;;;;;;;;;;;;;;5063576;28;1502;-73
2022/09/30 06:09:36;;;;;;;;;;;;;;;;;;5067733;28;1150;-74
2022/09/30 06:12:02;;;;;;;;;;;;;;;;;;5060423;28;1446;-74
2022/09/30 06:14:28;;;;;;;;;;;;;;;;;;5066814;28;1529;-75
2022/09/30 06:16:55;;;;;;;;;;;;;;;;;;5061750;28;1377;-74
2022/09/30 06:19:21;;;;;;;;;;;;;;;;;;5053501;28;1975;-75
2022/09/30 06:21:48;;;;;;;;;;;;;;;;;;5056123;28;1633;-74
2022/09/30 06:24:14;;;;;;;;;;;;;;;;;;5071427;28;1154;-74
2022/09/30 06:26:42;;;;;;;;;;;;;;;;;;5071921;28;1406;-75
2022/09/30 06:29:08;;;;;;;;;;;;;;;;;;5073525;28;778;-75
2022/09/30 06:31:35;;;;;;;;;;;;;;;;;;5058477;28;1191;-74
2022/09/30 06:34:01;;;;;;;;;;;;;;;;;;5051983;28;1154;-75
2022/09/30 06:36:28;;;;;;;;;;;;;;;;;;5053365;28;1321;-75
2022/09/30 06:38:55;;;;;;;;;;;;;;;;;;5056536;28;1910;-73
2022/09/30 06:41:24;;;;;;;;;;;;;;;;;;5072907;28;1067;-75
2022/09/30 06:43:51;;;;;;;;;;;;;;;;;;5070112;28;1198;-75
2022/09/30 06:46:17;;;;;;;;;;;;;;;;;;5060153;28;1589;-75
2022/09/30 06:48:43;;;;;;;;;;;;;;;;;;5062913;28;1794;-76
2022/09/30 06:51:09;;;;;;;;;;;;;;;;;;5061213;28;1592;-76
2022/09/30 06:53:36;;;;;;;;;;;;;;;;;;5053999;28;1450;-76
2022/09/30 06:56:04;;;;;;;;;;;;;;;;;;5059827;28;1565;-76
2022/09/30 06:58:30;;;;;;;;;;;;;;;;;;5062027;28;1980;-76
2022/09/30 07:00:56;;;;;;;;;;;;;;;;;;5068047;28;1140;-76
2022/09/30 07:03:24;;;;;;;;;;;;;;;;;;5072105;28;1478;-75
2022/09/30 07:05:56;;;;;;;;;;;;;;;;;;5055348;28;1399;-76
2022/09/30 07:08:22;;;;;;;;;;;;;;;;;;5051518;28;1044;-76
2022/09/30 07:10:48;;;;;;;;;;;;;;;;;;5052548;28;1056;-76
2022/09/30 07:13:16;;;;;;;;;;;;;;;;;;5052500;28;799;-76
2022/09/30 07:15:42;;;;;;;;;;;;;;;;;;5062734;28;1459;-76
2022/09/30 07:18:09;;;;;;;;;;;;;;;;;;5060931;28;1914;-76
2022/09/30 07:20:35;;;;;;;;;;;;;;;;;;5060623;28;1828;-76
2022/09/30 07:23:01;;;;;;;;;;;;;;;;;;5061963;28;1359;-76
2022/09/30 07:25:27;;;;;;;;;;;;;;;;;;5058538;28;1431;-77
2022/09/30 07:27:55;;;;;;;;;;;;;;;;;;5068374;28;1296;-76
2022/09/30 07:30:22;;;;;;;;;;;;;;;;;;5063697;28;1430;-75
2022/09/30 07:32:49;;;;;;;;;;;;;;;;;;5056332;28;1129;-76
2022/09/30 07:35:15;;;;;;;;;;;;;;;;;;5048114;28;1438;-75
2022/09/30 07:37:41;;;;;;;;;;;;;;;;;;5047683;28;1911;-75
2022/09/30 07:40:08;;;;;;;;;;;;;;;;;;5057074;28;1139;-75
2022/09/30 07:42:36;;;;;;;;;;;;;;;;;;5049870;28;1367;-75
2022/09/30 07:45:03;;;;;;;;;;;;;;;;;;5049841;28;858;-75
2022/09/30 07:47:30;;;;;;;;;;;;;;;;;;5047085;28;1488;-75
2022/09/30 07:49:56;;;;;;;;;;;;;;;;;;5045924;28;1688;-73
2022/09/30 07:52:22;;;;;;;;;;;;;;;;;;5040433;28;1349;-75
2022/09/30 07:54:49;;;;;;;;;;;;;;;;;;5042353;28;1432;-76
2022/09/30 07:57:15;;;;;;;;;;;;;;;;;;5046720;28;1434;-74
2022/09/30 07:59:41;;;;;;;;;;;;;;;;;;5067243;28;1917;-74
2022/09/30 08:02:10;;;;;;;;;;;;;;;;;;5066608;28;1106;-74
2022/09/30 08:04:37;;;;;;;;;;;;;;;;;;5068521;28;583;-74
2022/09/30 08:07:04;;;;;;;;;;;;;;;;;;5063062;28;1482;-74
2022/09/30 08:09:30;;;;;;;;;;;;;;;;;;5060451;28;1402;-72
2022/09/30 08:11:56;;;;;;;;;;;;;;;;;;5056714;28;1582;-74
2022/09/30 08:14:24;;;;;;;;;;;;;;;;;;5046473;28;1451;-75
2022/09/30 08:16:50;;;;;;;;;;;;;;;;;;5050631;28;1662;-75
2022/09/30 08:19:17;;;;;;;;;;;;;;;;;;5064766;28;2009;-76
2022/09/30 08:21:45;;;;;;;;;;;;;;;;;;5046949;28;1403;-75
2022/09/30 08:24:11;;;;;;;;;;;;;;;;;;5057005;28;1133;-75
2022/09/30 08:26:38;;;;;;;;;;;;;;;;;;5047812;28;1357;-75
2022/09/30 08:29:04;;;;;;;;;;;;;;;;;;5048943;28;1123;-75
2022/09/30 08:31:32;;;;;;;;;;;;;;;;;;5053175;28;1522;-75
2022/09/30 08:33:58;;;;;;;;;;;;;;;;;;5057878;28;1389;-76
2022/09/30 08:36:25;;;;;;;;;;;;;;;;;;5063845;28;1514;-74
2022/09/30 08:38:53;;;;;;;;;;;;;;;;;;5064089;28;1965;-75
2022/09/30 08:41:23;;;;;;;;;;;;;;;;;;5055814;28;1404;-75
2022/09/30 08:43:53;;;;;;;;;;;;;;;;;;5057383;28;1324;-75
2022/09/30 08:46:21;;;;;;;;;;;;;;;;;;5054387;28;1542;-75
2022/09/30 08:48:48;;;;;;;;;;;;;;;;;;5055175;28;1429;-75
2022/09/30 08:51:19;;;;;;;;;;;;;;;;;;5059018;28;1417;-75
2022/09/30 08:53:46;;;;;;;;;;;;;;;;;;5053406;28;1046;-75
2022/09/30 08:56:17;;;;;;;;;;;;;;;;;;5048539;28;1470;-75
2022/09/30 08:58:43;;;;;;;;;;;;;;;;;;5060335;28;1902;-76
2022/09/30 09:01:13;;;;;;;;;;;;;;;;;;5054168;28;1511;-75
2022/09/30 09:03:40;;;;;;;;;;;;;;;;;;5063026;28;1118;-75
2022/09/30 09:06:10;;;;;;;;;;;;;;;;;;5068114;28;1412;-75
2022/09/30 09:08:39;;;;;;;;;;;;;;;;;;5055060;28;1410;-75
2022/09/30 09:11:07;;;;;;;;;;;;;;;;;;5064182;28;1154;-75
2022/09/30 09:13:38;;;;;;;;;;;;;;;;;;5047913;28;806;-75
2022/09/30 09:16:06;;;;;;;;;;;;;;;;;;5049907;28;1468;-74
2022/09/30 09:18:46;;;;;;;;;;;;;;;;;;5060091;28;1932;-74
2022/09/30 09:21:16;;;;;;;;;;;;;;;;;;5070456;28;1098;-74
2022/09/30 09:23:43;;;;;;;;;;;;;;;;;;5071974;28;1174;-74
2022/09/30 09:26:09;;;;;;;;;;;;;;;;;;5063582;28;1504;-75
2022/09/30 09:28:36;;;;;;;;;;;;;;;;;;5064140;28;1054;-75
2022/09/30 09:31:04;;;;;;;;;;;;;;;;;;5060435;28;1296;-75
2022/09/30 09:33:31;;;;;;;;;;;;;;;;;;5049139;28;1403;-75
2022/09/30 09:36:00;;;;;;;;;;;;;;;;;;5059169;28;1370;-75
2022/09/30 09:38:29;;;;;;;;;;;;;;;;;;5063507;28;1971;-75
2022/09/30 09:40:58;;;;;;;;;;;;;;;;;;5071640;28;1139;-75
2022/09/30 09:43:29;;;;;;;;;;;;;;;;;;5057691;28;1474;-75
2022/09/30 09:45:56;;;;;;;;;;;;;;;;;;5071672;28;1358;-74
2022/09/30 09:48:24;;;;;;;;;;;;;;;;;;5063555;28;1424;-76
2022/09/30 09:50:53;;;;;;;;;;;;;;;;;;5060776;28;1180;-75
2022/09/30 09:53:21;;;;;;;;;;;;;;;;;;5071065;28;917;-75
2022/09/30 09:55:48;;;;;;;;;;;;;;;;;;5057156;28;2268;-76
2022/09/30 09:58:16;;;;;;;;;;;;;;;;;;5051677;28;1168;-75
2022/09/30 10:03:24;;;;;;;;;;;;;;;;;;5058255;28;1523;-73
2022/09/30 10:06:00;;;;;;;;;;;;;;;;;;5076836;22;2466;-78
2022/09/30 10:08:27;;;;;;;;;;;;;;;;;;5052487;28;1129;-74
2022/09/30 10:10:55;;;;;;;;;;;;;;;;;;5050654;28;1462;-75
2022/09/30 10:13:22;;;;;;;;;;;;;;;;;;5052697;28;1119;-75
2022/09/30 10:15:48;;;;;;;;;;;;;;;;;;5052695;28;1395;-74
2022/09/30 10:18:16;;;;;;;;;;;;;;;;;;5046556;28;1526;-77
2022/09/30 10:20:48;;;;;;;;;;;;;;;;;;5052481;28;1918;-75
2022/09/30 10:23:18;;;;;;;;;;;;;;;;;;5045615;28;1420;-75
2022/09/30 10:25:54;;;;;;;;;;;;;;;;;;5045908;28;1377;-75
2022/09/30 10:28:22;;;;;;;;;;;;;;;;;;5052362;28;987;-75
2022/09/30 10:30:49;;;;;;;;;;;;;;;;;;5041925;28;1459;-75
2022/09/30 10:33:16;;;;;;;;;;;;;;;;;;5050718;28;1210;-75
2022/09/30 10:35:50;;;;;;;;;;;;;;;;;;5051726;28;1341;-75
2022/09/30 10:38:18;;;;;;;;;;;;;;;;;;5051803;28;964;-74
2022/09/30 10:40:45;;;;;;;;;;;;;;;;;;5048228;28;1914;-75
2022/09/30 10:43:17;;;;;;;;;;;;;;;;;;5047254;28;1289;-75
2022/09/30 10:45:43;;;;;;;;;;;;;;;;;;5032198;28;1397;-74
2022/09/30 10:48:13;;;;;;;;;;;;;;;;;;5031167;28;1148;-75
2022/09/30 10:50:40;;;;;;;;;;;;;;;;;;5031381;28;1483;-75
2022/09/30 10:53:11;;;;;;;;;;;;;;;;;;5042552;28;1487;-77
2022/09/30 10:55:42;;;;;;;;;;;;;;;;;;5052488;28;1358;-78
2022/09/30 10:58:20;;;;;;;;;;;;;;;;;;5051690;28;850;-78
2022/09/30 11:00:47;;;;;;;;;;;;;;;;;;5041688;28;1918;-77
2022/09/30 11:03:14;;;;;;;;;;;;;;;;;;5052068;28;1220;-77
2022/09/30 11:05:41;;;;;;;;;;;;;;;;;;5051704;28;1311;-78
2022/09/30 11:08:10;;;;;;;;;;;;;;;;;;5041782;28;1423;-78
2022/09/30 11:10:39;;;;;;;;;;;;;;;;;;5051037;28;1198;-78
2022/09/30 11:13:10;;;;;;;;;;;;;;;;;;5044348;28;1404;-78
2022/09/30 11:15:38;;;;;;;;;;;;;;;;;;5051251;28;1396;-77
2022/09/30 11:18:05;;;;;;;;;;;;;;;;;;5035050;28;1392;-78
2022/09/30 11:20:32;;;;;;;;;;;;;;;;;;5032622;28;1914;-76
2022/09/30 11:22:59;;;;;;;;;;;;;;;;;;5062743;28;1114;-78
2022/09/30 11:25:27;;;;;;;;;;;;;;;;;;5051781;28;1083;-75
2022/09/30 11:27:57;;;;;;;;;;;;;;;;;;5051086;28;1333;-75
2022/09/30 11:30:26;;;;;;;;;;;;;;;;;;5039612;28;1396;-76
2022/09/30 11:32:56;;;;;;;;;;;;;;;;;;5034377;28;1431;-77
2022/09/30 11:35:29;;;;;;;;;;;;;;;;;;5050910;28;1354;-75
2022/09/30 11:37:58;;;;;;;;;;;;;;;;;;5051330;28;1119;-76
2022/09/30 11:40:29;;;;;;;;;;;;;;;;;;5051084;28;1963;-77
2022/09/30 11:42:56;;;;;;;;;;;;;;;;;;5050273;28;1119;-78
2022/09/30 11:45:28;;;;;;;;;;;;;;;;;;5050843;28;1059;-78
2022/09/30 11:48:03;;;;;;;;;;;;;;;;;;5050261;28;1343;-77
2022/09/30 11:50:33;;;;;;;;;;;;;;;;;;5050674;28;949;-78
2022/09/30 11:53:03;;;;;;;;;;;;;;;;;;5045019;28;1100;-77
2022/09/30 11:55:32;;;;;;;;;;;;;;;;;;5050655;28;893;-77
2022/09/30 11:58:00;;;;;;;;;;;;;;;;;;5050874;28;1131;-77
2022/09/30 12:00:27;;;;;;;;;;;;;;;;;;5044512;28;1914;-77
2022/09/30 12:02:54;;;;;;;;;;;;;;;;;;5030289;28;823;-78
2022/09/30 12:05:22;;;;;;;;;;;;;;;;;;5030462;28;1112;-77
2022/09/30 12:07:49;;;;;;;;;;;;;;;;;;5028810;28;1551;-78
2022/09/30 12:10:19;;;;;;;;;;;;;;;;;;5032956;28;1497;-78
2022/09/30 12:12:45;;;;;;;;;;;;;;;;;;5038357;28;1264;-77
2022/09/30 12:15:14;;;;;;;;;;;;;;;;;;5014616;28;1413;-78
2022/09/30 12:17:42;;;;;;;;;;;;;;;;;;5037196;28;1358;-77
2022/09/30 12:20:15;;;;;;;;;;;;;;;;;;5047591;28;1989;-78
2022/09/30 12:22:41;;;;;;;;;;;;;;;;;;5048947;28;938;-76
2022/09/30 12:25:11;;;;;;;;;;;;;;;;;;5050240;28;1072;-75
2022/09/30 12:27:39;;;;;;;;;;;;;;;;;;5049463;28;1423;-75
2022/09/30 12:30:17;;;;;;;;;;;;;;;;;;5028500;28;1606;-76
2022/09/30 12:32:57;;;;;;;;;;;;;;;;;;5045818;28;1460;-78
2022/09/30 12:35:27;;;;;;;;;;;;;;;;;;5010192;28;1064;-77
2022/09/30 12:37:58;;;;;;;;;;;;;;;;;;5023587;28;1496;-76
2022/09/30 12:40:26;;;;;;;;;;;;;;;;;;5033550;28;1973;-76
2022/09/30 12:43:05;;;;;;;;;;;;;;;;;;5045455;28;1435;-76
2022/09/30 12:45:50;;;;;;;;;;;;;;;;;;5034998;28;1408;-77
2022/09/30 12:48:19;;;;;;;;;;;;;;;;;;5045353;28;1163;-77
2022/09/30 12:50:46;;;;;;;;;;;;;;;;;;5034015;28;1412;-78
2022/09/30 12:53:16;;;;;;;;;;;;;;;;;;5036809;28;1281;-78
2022/09/30 12:55:42;;;;;;;;;;;;;;;;;;5050472;28;1399;-77
2022/09/30 12:58:13;;;;;;;;;;;;;;;;;;5052096;28;1011;-77
2022/09/30 13:00:39;;;;;;;;;;;;;;;;;;5040621;28;1975;-77
2022/09/30 13:03:06;;;;;;;;;;;;;;;;;;5042695;28;1103;-78
2022/09/30 13:05:56;;;;;;;;;;;;;;;;;;5049978;28;1623;-77
2022/09/30 13:08:26;;;;;;;;;;;;;;;;;;5046971;28;1412;-76
2022/09/30 13:10:56;;;;;;;;;;;;;;;;;;5039886;28;1444;-78
2022/09/30 13:13:26;;;;;;;;;;;;;;;;;;5012000;28;1021;-76
2022/09/30 13:15:55;;;;;;;;;;;;;;;;;;5015537;28;1480;-76
2022/09/30 13:18:40;;;;;;;;;;;;;;;;;;5030497;28;1357;-78
2022/09/30 13:21:20;;;;;;;;;;;;;;;;;;5049674;28;1914;-78
2022/09/30 13:23:47;;;;;;;;;;;;;;;;;;5051521;28;866;-77
2022/09/30 13:26:32;;;;;;;;;;;;;;;;;;5050886;28;1332;-78
2022/09/30 13:29:14;;;;;;;;;;;;;;;;;;5049169;28;1396;-77
2022/09/30 13:31:55;;;;;;;;;;;;;;;;;;5039070;28;1396;-77
2022/09/30 13:34:22;;;;;;;;;;;;;;;;;;5041529;28;1469;-77
2022/09/30 13:36:56;;;;;;;;;;;;;;;;;;5036397;28;1438;-78
2022/09/30 13:39:24;;;;;;;;;;;;;;;;;;5038215;28;1398;-76
2022/09/30 13:41:56;;;;;;;;;;;;;;;;;;5051277;28;1989;-79
2022/09/30 13:44:24;;;;;;;;;;;;;;;;;;5052049;28;1451;-78
2022/09/30 13:46:51;;;;;;;;;;;;;;;;;;5047944;28;1463;-79
2022/09/30 13:49:18;;;;;;;;;;;;;;;;;;5052232;28;1093;-79
2022/09/30 13:51:44;;;;;;;;;;;;;;;;;;5041460;28;1408;-77
2022/09/30 13:54:12;;;;;;;;;;;;;;;;;;5041153;28;1482;-78
2022/09/30 13:56:40;;;;;;;;;;;;;;;;;;5044271;28;1397;-78
2022/09/30 13:59:31;;;;;;;;;;;;;;;;;;5052145;28;1040;-79
2022/09/30 14:02:07;;;;;;;;;;;;;;;;;;5049934;28;1975;-78
2022/09/30 14:04:46;;;;;;;;;;;;;;;;;;5033893;28;1769;-78
2022/09/30 14:07:14;;;;;;;;;;;;;;;;;;5049882;28;1502;-78
2022/09/30 14:09:46;;;;;;;;;;;;;;;;;;5038980;28;1532;-79
2022/09/30 14:12:25;;;;;;;;;;;;;;;;;;5030564;28;1151;-78
2022/09/30 14:15:06;;;;;;;;;;;;;;;;;;5031738;28;914;-78
2022/09/30 14:17:36;;;;;;;;;;;;;;;;;;4998662;28;1351;-78
2022/09/30 14:20:18;;;;;;;;;;;;;;;;;;5038474;28;2155;-78
2022/09/30 14:22:44;;;;;;;;;;;;;;;;;;5049610;28;1141;-79
2022/09/30 14:25:13;;;;;;;;;;;;;;;;;;5052751;28;964;-77
2022/09/30 14:27:45;;;;;;;;;;;;;;;;;;5051172;28;1453;-78
2022/09/30 14:30:11;;;;;;;;;;;;;;;;;;5037329;28;1439;-78
2022/09/30 14:32:40;;;;;;;;;;;;;;;;;;5052732;28;1125;-78
2022/09/30 14:35:06;;;;;;;;;;;;;;;;;;5052311;28;1123;-79
2022/09/30 14:37:35;;;;;;;;;;;;;;;;;;5052818;28;1415;-78
2022/09/30 14:40:01;;;;;;;;;;;;;;;;;;5044797;28;1917;-78
2022/09/30 14:42:29;;;;;;;;;;;;;;;;;;5043765;28;1463;-79
2022/09/30 14:45:03;;;;;;;;;;;;;;;;;;5040223;28;1563;-78
2022/09/30 14:47:30;;;;;;;;;;;;;;;;;;5038377;28;1396;-78
2022/09/30 14:49:57;;;;;;;;;;;;;;;;;;5022619;28;1288;-79
2022/09/30 14:52:34;;;;;;;;;;;;;;;;;;5014737;28;1081;-78
2022/09/30 14:55:20;;;;;;;;;;;;;;;;;;5021753;28;1311;-78
2022/09/30 14:57:55;;;;;;;;;;;;;;;;;;5033323;28;1435;-78
2022/09/30 15:00:26;;;;;;;;;;;;;;;;;;5026845;28;1918;-78
2022/09/30 15:02:52;;;;;;;;;;;;;;;;;;5029851;28;1255;-77
2022/09/30 15:05:19;;;;;;;;;;;;;;;;;;5023613;28;1323;-77
2022/09/30 15:07:45;;;;;;;;;;;;;;;;;;5019955;28;1357;-78
2022/09/30 15:10:17;;;;;;;;;;;;;;;;;;5021749;28;1318;-78
2022/09/30 15:12:43;;;;;;;;;;;;;;;;;;5025282;28;1401;-78
2022/09/30 15:15:23;;;;;;;;;;;;;;;;;;5027740;28;1724;-78
2022/09/30 15:17:50;;;;;;;;;;;;;;;;;;5029062;28;1521;-79
2022/09/30 15:20:23;;;;;;;;;;;;;;;;;;5021717;28;1962;-79
2022/09/30 15:22:49;;;;;;;;;;;;;;;;;;5031700;28;1415;-78
2022/09/30 15:25:16;;;;;;;;;;;;;;;;;;5026091;28;1178;-76
2022/09/30 15:27:42;;;;;;;;;;;;;;;;;;5021180;28;1420;-78
2022/09/30 15:30:21;;;;;;;;;;;;;;;;;;5019319;28;1192;-79
2022/09/30 15:32:55;;;;;;;;;;;;;;;;;;5024138;28;1372;-78
2022/09/30 15:35:22;;;;;;;;;;;;;;;;;;5022774;28;1240;-78
2022/09/30 15:37:49;;;;;;;;;;;;;;;;;;5022836;28;1337;-78
2022/09/30 15:43:01;;;;;;;;;;;;;;;;;;5022272;28;1458;-78
2022/09/30 15:45:28;;;;;;;;;;;;;;;;;;5017832;28;2414;-78
2022/09/30 15:47:57;;;;;;;;;;;;;;;;;;5014449;28;1371;-77
2022/09/30 15:50:36;;;;;;;;;;;;;;;;;;5020331;28;1475;-77
2022/09/30 15:53:03;;;;;;;;;;;;;;;;;;5026925;28;1240;-78
2022/09/30 15:55:37;;;;;;;;;;;;;;;;;;5029133;28;1325;-78
2022/09/30 15:58:04;;;;;;;;;;;;;;;;;;5022138;28;1295;-78
2022/09/30 16:00:32;;;;;;;;;;;;;;;;;;5017531;28;1910;-78
2022/09/30 16:03:06;;;;;;;;;;;;;;;;;;5022359;28;1574;-77
2022/09/30 16:05:32;;;;;;;;;;;;;;;;;;5009485;28;902;-79
2022/09/30 16:07:58;;;;;;;;;;;;;;;;;;5009863;28;1542;-79
2022/09/30 16:10:26;;;;;;;;;;;;;;;;;;5038012;28;1157;-77
2022/09/30 16:12:52;;;;;;;;;;;;;;;;;;5036002;28;1431;-78
2022/09/30 16:15:18;;;;;;;;;;;;;;;;;;5050185;28;1331;-79
2022/09/30 16:17:45;;;;;;;;;;;;;;;;;;5039612;28;1609;-77
2022/09/30 16:20:21;;;;;;;;;;;;;;;;;;5049277;28;1121;-79
2022/09/30 16:22:49;;;;;;;;;;;;;;;;;;5039345;28;1989;-80
2022/09/30 16:25:17;;;;;;;;;;;;;;;;;;5048210;28;1146;-77
2022/09/30 16:27:43;;;;;;;;;;;;;;;;;;5049860;28;1417;-78
2022/09/30 16:30:12;;;;;;;;;;;;;;;;;;5043372;28;1459;-78
2022/09/30 16:32:38;;;;;;;;;;;;;;;;;;5035398;28;1380;-78
2022/09/30 16:35:05;;;;;;;;;;;;;;;;;;5027728;28;791;-77
2022/09/30 16:37:34;;;;;;;;;;;;;;;;;;5029688;28;1407;-77
2022/09/30 16:40:01;;;;;;;;;;;;;;;;;;5027930;28;1361;-78
2022/09/30 16:42:31;;;;;;;;;;;;;;;;;;5026539;28;1997;-77
2022/09/30 16:44:59;;;;;;;;;;;;;;;;;;5028508;28;1615;-78
2022/09/30 16:47:26;;;;;;;;;;;;;;;;;;5045749;28;1491;-78
2022/09/30 16:49:52;;;;;;;;;;;;;;;;;;5047228;28;1240;-77
2022/09/30 16:52:18;;;;;;;;;;;;;;;;;;5049007;28;1075;-78
2022/09/30 16:54:45;;;;;;;;;;;;;;;;;;5044894;28;1404;-78
2022/09/30 16:57:12;;;;;;;;;;;;;;;;;;5047222;28;1475;-77
2022/09/30 16:59:38;;;;;;;;;;;;;;;;;;5040823;28;1468;-77
2022/09/30 17:02:05;;;;;;;;;;;;;;;;;;5028467;28;1910;-77
2022/09/30 17:04:33;;;;;;;;;;;;;;;;;;5031811;28;1263;-77
2022/09/30 17:07:00;;;;;;;;;;;;;;;;;;5027570;28;1459;-78
2022/09/30 17:09:27;;;;;;;;;;;;;;;;;;5035559;28;1619;-79
2022/09/30 17:11:54;;;;;;;;;;;;;;;;;;5044599;28;1178;-79
2022/09/30 17:14:20;;;;;;;;;;;;;;;;;;5015459;28;1352;-77
2022/09/30 17:16:46;;;;;;;;;;;;;;;;;;5015670;28;1435;-78